sensor_id;sensor_type;location;lat;lon;timestamp;pressure;altitude;pressure_sealevel;temperature;humidity
27210;BME280;14721;42.668;23.386;2023-03-14T00:00:59;95546.31;;;3.82;53.04
27210;BME280;14721;42.668;23.386;2023-03-14T00:03:24;95535.22;;;3.74;53.28
27210;BME280;14721;42.668;23.386;2023-03-14T00:05:53;95537.31;;;3.86;53.30
27210;BME280;14721;42.668;23.386;2023-03-14T00:08:19;95526.28;;;3.77;53.63
27210;BME280;14721;42.668;23.386;2023-03-14T00:10:56;95532.72;;;3.71;54.19
27210;BME280;14721;42.668;23.386;2023-03-14T00:13:26;95522.00;;;3.74;53.74
27210;BME280;14721;42.668;23.386;2023-03-14T00:16:05;95522.34;;;3.67;54.16
27210;BME280;14721;42.668;23.386;2023-03-14T00:18:51;95512.66;;;3.67;54.20
27210;BME280;14721;42.668;23.386;2023-03-14T00:21:18;95510.22;;;3.63;54.55
27210;BME280;14721;42.668;23.386;2023-03-14T00:23:44;95502.91;;;3.68;54.31
27210;BME280;14721;42.668;23.386;2023-03-14T00:26:12;95498.44;;;3.50;55.03
27210;BME280;14721;42.668;23.386;2023-03-14T00:28:45;95495.88;;;3.48;55.33
27210;BME280;14721;42.668;23.386;2023-03-14T00:31:14;95489.81;;;3.46;55.80
27210;BME280;14721;42.668;23.386;2023-03-14T00:33:42;95487.59;;;3.37;55.60
27210;BME280;14721;42.668;23.386;2023-03-14T00:36:10;95484.41;;;3.49;55.61
27210;BME280;14721;42.668;23.386;2023-03-14T00:38:36;95479.59;;;3.39;55.96
27210;BME280;14721;42.668;23.386;2023-03-14T00:41:04;95485.41;;;3.27;56.64
27210;BME280;14721;42.668;23.386;2023-03-14T00:43:30;95476.63;;;3.26;56.21
27210;BME280;14721;42.668;23.386;2023-03-14T00:45:58;95475.69;;;3.47;55.96
27210;BME280;14721;42.668;23.386;2023-03-14T00:48:24;95466.81;;;3.48;55.86
27210;BME280;14721;42.668;23.386;2023-03-14T00:50:49;95472.66;;;3.36;56.27
27210;BME280;14721;42.668;23.386;2023-03-14T00:53:15;95468.81;;;3.43;56.29
27210;BME280;14721;42.668;23.386;2023-03-14T00:55:42;95469.53;;;3.47;56.00
27210;BME280;14721;42.668;23.386;2023-03-14T00:58:10;95473.78;;;3.51;55.70
27210;BME280;14721;42.668;23.386;2023-03-14T01:00:35;95470.88;;;3.37;56.38
27210;BME280;14721;42.668;23.386;2023-03-14T01:03:02;95468.63;;;3.28;56.98
27210;BME280;14721;42.668;23.386;2023-03-14T01:05:28;95469.78;;;3.22;56.87
27210;BME280;14721;42.668;23.386;2023-03-14T01:07:53;95466.72;;;3.11;57.28
27210;BME280;14721;42.668;23.386;2023-03-14T01:10:19;95452.78;;;3.08;57.32
27210;BME280;14721;42.668;23.386;2023-03-14T01:12:44;95462.59;;;3.06;57.59
27210;BME280;14721;42.668;23.386;2023-03-14T01:15:10;95452.34;;;2.98;58.01
27210;BME280;14721;42.668;23.386;2023-03-14T01:17:35;95446.69;;;3.07;57.58
27210;BME280;14721;42.668;23.386;2023-03-14T01:20:04;95458.75;;;3.13;57.43
27210;BME280;14721;42.668;23.386;2023-03-14T01:22:30;95455.38;;;3.09;57.46
27210;BME280;14721;42.668;23.386;2023-03-14T01:24:56;95445.75;;;3.08;57.29
27210;BME280;14721;42.668;23.386;2023-03-14T01:27:21;95437.34;;;3.19;57.20
27210;BME280;14721;42.668;23.386;2023-03-14T01:29:47;95437.56;;;3.14;57.26
27210;BME280;14721;42.668;23.386;2023-03-14T01:32:13;95441.47;;;3.06;57.38
27210;BME280;14721;42.668;23.386;2023-03-14T01:34:38;95436.50;;;3.18;57.39
27210;BME280;14721;42.668;23.386;2023-03-14T01:37:04;95442.56;;;3.20;57.20
27210;BME280;14721;42.668;23.386;2023-03-14T01:39:30;95432.22;;;3.16;57.19
27210;BME280;14721;42.668;23.386;2023-03-14T01:41:56;95428.84;;;3.12;57.28
27210;BME280;14721;42.668;23.386;2023-03-14T01:44:22;95412.03;;;2.95;58.09
27210;BME280;14721;42.668;23.386;2023-03-14T01:46:47;95427.25;;;2.88;58.80
27210;BME280;14721;42.668;23.386;2023-03-14T01:49:20;95428.13;;;2.89;58.45
27210;BME280;14721;42.668;23.386;2023-03-14T01:56:48;95409.72;;;2.87;59.88
27210;BME280;14721;42.668;23.386;2023-03-14T01:59:15;95408.84;;;2.87;60.32
27210;BME280;14721;42.668;23.386;2023-03-14T02:01:43;95412.28;;;2.89;59.77
27210;BME280;14721;42.668;23.386;2023-03-14T02:04:10;95419.16;;;2.93;61.07
27210;BME280;14721;42.668;23.386;2023-03-14T02:06:55;95410.13;;;2.98;60.72
27210;BME280;14721;42.668;23.386;2023-03-14T02:09:22;95415.41;;;2.98;60.06
27210;BME280;14721;42.668;23.386;2023-03-14T02:11:49;95419.88;;;2.96;60.37
27210;BME280;14721;42.668;23.386;2023-03-14T02:14:36;95405.81;;;2.96;60.27
27210;BME280;14721;42.668;23.386;2023-03-14T02:17:03;95406.28;;;2.85;60.56
27210;BME280;14721;42.668;23.386;2023-03-14T02:22:15;95411.31;;;2.71;60.91
27210;BME280;14721;42.668;23.386;2023-03-14T02:27:28;95401.28;;;2.79;61.67
27210;BME280;14721;42.668;23.386;2023-03-14T02:30:00;95413.03;;;2.72;61.97
27210;BME280;14721;42.668;23.386;2023-03-14T02:32:27;95405.84;;;2.76;62.48
27210;BME280;14721;42.668;23.386;2023-03-14T02:34:58;95405.50;;;2.63;62.49
27210;BME280;14721;42.668;23.386;2023-03-14T02:37:47;95398.50;;;2.62;62.61
27210;BME280;14721;42.668;23.386;2023-03-14T02:40:14;95406.56;;;2.59;62.57
27210;BME280;14721;42.668;23.386;2023-03-14T02:42:44;95403.78;;;2.62;63.28
27210;BME280;14721;42.668;23.386;2023-03-14T02:47:39;95413.72;;;2.56;63.73
27210;BME280;14721;42.668;23.386;2023-03-14T02:50:29;95414.44;;;2.39;63.79
27210;BME280;14721;42.668;23.386;2023-03-14T02:52:55;95413.66;;;2.16;64.16
27210;BME280;14721;42.668;23.386;2023-03-14T02:55:22;95417.75;;;2.23;64.41
27210;BME280;14721;42.668;23.386;2023-03-14T02:57:48;95418.19;;;2.12;64.90
27210;BME280;14721;42.668;23.386;2023-03-14T03:00:14;95417.28;;;2.13;65.61
27210;BME280;14721;42.668;23.386;2023-03-14T03:02:40;95426.72;;;2.19;65.70
27210;BME280;14721;42.668;23.386;2023-03-14T03:05:06;95428.50;;;2.18;66.50
27210;BME280;14721;42.668;23.386;2023-03-14T03:07:31;95428.63;;;2.15;66.25
27210;BME280;14721;42.668;23.386;2023-03-14T03:09:57;95420.78;;;2.14;66.56
27210;BME280;14721;42.668;23.386;2023-03-14T03:12:22;95417.16;;;2.16;66.48
27210;BME280;14721;42.668;23.386;2023-03-14T03:14:48;95413.72;;;2.14;67.40
27210;BME280;14721;42.668;23.386;2023-03-14T03:17:13;95421.88;;;2.08;67.71
27210;BME280;14721;42.668;23.386;2023-03-14T03:19:39;95407.06;;;2.06;67.87
27210;BME280;14721;42.668;23.386;2023-03-14T03:22:04;95418.38;;;2.08;68.22
27210;BME280;14721;42.668;23.386;2023-03-14T03:24:30;95416.84;;;2.02;67.88
27210;BME280;14721;42.668;23.386;2023-03-14T03:27:25;95422.19;;;2.01;67.74
27210;BME280;14721;42.668;23.386;2023-03-14T03:30:05;95419.09;;;1.89;67.09
27210;BME280;14721;42.668;23.386;2023-03-14T03:32:31;95416.41;;;1.91;67.85
27210;BME280;14721;42.668;23.386;2023-03-14T03:34:57;95425.06;;;1.94;68.58
27210;BME280;14721;42.668;23.386;2023-03-14T03:37:23;95410.50;;;1.86;68.79
27210;BME280;14721;42.668;23.386;2023-03-14T03:39:51;95415.88;;;1.83;68.76
27210;BME280;14721;42.668;23.386;2023-03-14T03:42:18;95408.09;;;1.80;68.60
27210;BME280;14721;42.668;23.386;2023-03-14T03:44:44;95411.09;;;1.71;68.00
27210;BME280;14721;42.668;23.386;2023-03-14T03:47:10;95417.94;;;1.75;69.12
27210;BME280;14721;42.668;23.386;2023-03-14T03:49:35;95419.88;;;1.70;69.64
27210;BME280;14721;42.668;23.386;2023-03-14T03:52:01;95418.00;;;1.50;69.90
27210;BME280;14721;42.668;23.386;2023-03-14T03:54:27;95425.63;;;1.58;69.92
27210;BME280;14721;42.668;23.386;2023-03-14T03:56:54;95424.78;;;1.57;70.26
27210;BME280;14721;42.668;23.386;2023-03-14T03:59:20;95432.69;;;1.57;70.25
27210;BME280;14721;42.668;23.386;2023-03-14T04:01:46;95432.84;;;1.53;70.78
27210;BME280;14721;42.668;23.386;2023-03-14T04:04:13;95437.03;;;1.58;70.12
27210;BME280;14721;42.668;23.386;2023-03-14T04:06:38;95432.44;;;1.63;70.54
27210;BME280;14721;42.668;23.386;2023-03-14T04:09:04;95430.53;;;1.67;70.33
27210;BME280;14721;42.668;23.386;2023-03-14T04:11:30;95431.69;;;1.60;69.81
27210;BME280;14721;42.668;23.386;2023-03-14T04:13:56;95428.19;;;1.59;70.48
27210;BME280;14721;42.668;23.386;2023-03-14T04:16:24;95423.03;;;1.56;70.66
27210;BME280;14721;42.668;23.386;2023-03-14T04:18:50;95423.03;;;1.56;71.32
27210;BME280;14721;42.668;23.386;2023-03-14T04:21:17;95415.16;;;1.56;71.58
27210;BME280;14721;42.668;23.386;2023-03-14T04:23:43;95411.03;;;1.49;71.49
27210;BME280;14721;42.668;23.386;2023-03-14T04:26:08;95408.47;;;1.48;72.13
27210;BME280;14721;42.668;23.386;2023-03-14T04:28:34;95413.44;;;1.55;71.59
27210;BME280;14721;42.668;23.386;2023-03-14T04:31:13;95399.75;;;1.46;71.90
27210;BME280;14721;42.668;23.386;2023-03-14T04:33:39;95398.16;;;1.42;72.01
27210;BME280;14721;42.668;23.386;2023-03-14T04:36:06;95394.28;;;1.29;71.95
27210;BME280;14721;42.668;23.386;2023-03-14T04:38:32;95393.06;;;1.37;71.79
27210;BME280;14721;42.668;23.386;2023-03-14T04:40:58;95392.78;;;1.45;71.62
27210;BME280;14721;42.668;23.386;2023-03-14T04:43:24;95385.81;;;1.44;72.31
27210;BME280;14721;42.668;23.386;2023-03-14T04:45:54;95381.22;;;1.49;72.00
27210;BME280;14721;42.668;23.386;2023-03-14T04:48:20;95381.91;;;1.54;72.26
27210;BME280;14721;42.668;23.386;2023-03-14T04:50:47;95386.94;;;1.60;72.43
27210;BME280;14721;42.668;23.386;2023-03-14T04:53:13;95389.88;;;1.52;72.67
27210;BME280;14721;42.668;23.386;2023-03-14T04:55:39;95378.09;;;1.61;72.53
27210;BME280;14721;42.668;23.386;2023-03-14T04:58:04;95374.34;;;1.68;72.02
27210;BME280;14721;42.668;23.386;2023-03-14T05:00:30;95377.81;;;1.68;72.12
27210;BME280;14721;42.668;23.386;2023-03-14T05:02:56;95383.94;;;1.69;72.00
27210;BME280;14721;42.668;23.386;2023-03-14T05:05:23;95377.09;;;1.65;72.46
27210;BME280;14721;42.668;23.386;2023-03-14T05:07:48;95378.84;;;1.64;72.35
27210;BME280;14721;42.668;23.386;2023-03-14T05:10:14;95377.09;;;1.65;72.29
27210;BME280;14721;42.668;23.386;2023-03-14T05:12:39;95385.69;;;1.68;72.65
27210;BME280;14721;42.668;23.386;2023-03-14T05:15:06;95382.94;;;1.71;73.12
27210;BME280;14721;42.668;23.386;2023-03-14T05:17:37;95380.44;;;1.68;72.72
27210;BME280;14721;42.668;23.386;2023-03-14T05:20:03;95367.97;;;1.73;72.35
27210;BME280;14721;42.668;23.386;2023-03-14T05:22:34;95375.13;;;1.91;71.51
27210;BME280;14721;42.668;23.386;2023-03-14T05:24:59;95375.69;;;2.00;70.80
27210;BME280;14721;42.668;23.386;2023-03-14T05:27:25;95375.19;;;2.12;70.32
27210;BME280;14721;42.668;23.386;2023-03-14T05:29:50;95369.66;;;2.18;69.83
27210;BME280;14721;42.668;23.386;2023-03-14T05:32:16;95373.31;;;2.35;69.13
27210;BME280;14721;42.668;23.386;2023-03-14T05:34:41;95373.91;;;2.42;68.51
27210;BME280;14721;42.668;23.386;2023-03-14T05:37:07;95366.88;;;2.62;67.63
27210;BME280;14721;42.668;23.386;2023-03-14T05:39:32;95366.69;;;2.85;67.25
27210;BME280;14721;42.668;23.386;2023-03-14T05:41:58;95361.81;;;3.16;65.99
27210;BME280;14721;42.668;23.386;2023-03-14T05:44:24;95372.66;;;3.47;65.20
27210;BME280;14721;42.668;23.386;2023-03-14T05:46:49;95376.00;;;3.88;64.14
27210;BME280;14721;42.668;23.386;2023-03-14T05:49:15;95371.22;;;4.32;62.42
27210;BME280;14721;42.668;23.386;2023-03-14T05:51:40;95351.13;;;4.96;60.22
27210;BME280;14721;42.668;23.386;2023-03-14T05:54:06;95363.66;;;5.42;58.02
27210;BME280;14721;42.668;23.386;2023-03-14T05:56:32;95362.13;;;5.86;57.54
27210;BME280;14721;42.668;23.386;2023-03-14T05:58:57;95365.72;;;6.32;56.08
27210;BME280;14721;42.668;23.386;2023-03-14T06:01:23;95354.94;;;6.64;54.62
27210;BME280;14721;42.668;23.386;2023-03-14T06:03:48;95360.03;;;6.83;53.63
27210;BME280;14721;42.668;23.386;2023-03-14T06:06:14;95354.84;;;6.95;53.00
27210;BME280;14721;42.668;23.386;2023-03-14T06:08:42;95357.22;;;7.00;52.46
27210;BME280;14721;42.668;23.386;2023-03-14T06:11:07;95364.53;;;6.96;52.19
27210;BME280;14721;42.668;23.386;2023-03-14T06:13:33;95348.97;;;8.03;51.06
27210;BME280;14721;42.668;23.386;2023-03-14T06:15:59;95352.50;;;9.34;47.93
27210;BME280;14721;42.668;23.386;2023-03-14T06:18:24;95347.81;;;9.63;46.02
27210;BME280;14721;42.668;23.386;2023-03-14T06:20:53;95345.25;;;10.12;44.35
27210;BME280;14721;42.668;23.386;2023-03-14T06:23:19;95346.28;;;10.22;44.03
27210;BME280;14721;42.668;23.386;2023-03-14T06:25:46;95340.97;;;9.97;43.34
27210;BME280;14721;42.668;23.386;2023-03-14T06:28:11;95357.59;;;10.25;43.37
27210;BME280;14721;42.668;23.386;2023-03-14T06:30:37;95350.69;;;10.70;43.29
27210;BME280;14721;42.668;23.386;2023-03-14T06:33:02;95351.41;;;11.30;42.18
27210;BME280;14721;42.668;23.386;2023-03-14T06:35:28;95342.22;;;11.45;41.18
27210;BME280;14721;42.668;23.386;2023-03-14T06:37:53;95348.22;;;10.90;41.81
27210;BME280;14721;42.668;23.386;2023-03-14T06:40:19;95346.50;;;10.66;42.12
27210;BME280;14721;42.668;23.386;2023-03-14T06:42:45;95344.91;;;10.87;42.29
27210;BME280;14721;42.668;23.386;2023-03-14T06:45:11;95342.13;;;10.88;41.78
27210;BME280;14721;42.668;23.386;2023-03-14T06:47:36;95338.31;;;11.03;41.48
27210;BME280;14721;42.668;23.386;2023-03-14T06:50:04;95341.06;;;10.67;41.66
27210;BME280;14721;42.668;23.386;2023-03-14T06:52:30;95321.09;;;11.07;40.89
27210;BME280;14721;42.668;23.386;2023-03-14T06:54:56;95322.75;;;11.43;40.43
27210;BME280;14721;42.668;23.386;2023-03-14T06:57:21;95326.00;;;11.81;40.27
27210;BME280;14721;42.668;23.386;2023-03-14T06:59:47;95319.06;;;12.01;39.17
27210;BME280;14721;42.668;23.386;2023-03-14T07:02:13;95321.34;;;11.83;39.34
27210;BME280;14721;42.668;23.386;2023-03-14T07:04:39;95317.69;;;11.95;39.22
27210;BME280;14721;42.668;23.386;2023-03-14T07:07:05;95319.16;;;11.88;38.50
27210;BME280;14721;42.668;23.386;2023-03-14T07:09:31;95300.28;;;12.34;37.67
27210;BME280;14721;42.668;23.386;2023-03-14T07:11:56;95297.13;;;12.71;36.82
27210;BME280;14721;42.668;23.386;2023-03-14T07:14:22;95296.00;;;12.31;37.17
27210;BME280;14721;42.668;23.386;2023-03-14T07:16:47;95294.09;;;12.96;36.55
27210;BME280;14721;42.668;23.386;2023-03-14T07:19:13;95290.06;;;12.91;36.14
27210;BME280;14721;42.668;23.386;2023-03-14T07:21:38;95287.66;;;12.88;35.56
27210;BME280;14721;42.668;23.386;2023-03-14T07:24:05;95289.78;;;12.73;35.57
27210;BME280;14721;42.668;23.386;2023-03-14T07:26:31;95302.34;;;12.30;36.16
27210;BME280;14721;42.668;23.386;2023-03-14T07:28:56;95295.03;;;12.75;36.30
27210;BME280;14721;42.668;23.386;2023-03-14T07:31:22;95293.47;;;12.61;36.34
27210;BME280;14721;42.668;23.386;2023-03-14T07:33:47;95280.91;;;12.30;36.09
27210;BME280;14721;42.668;23.386;2023-03-14T07:36:13;95287.31;;;12.81;35.46
27210;BME280;14721;42.668;23.386;2023-03-14T07:38:38;95281.88;;;12.72;36.05
27210;BME280;14721;42.668;23.386;2023-03-14T07:41:05;95283.00;;;12.69;35.41
27210;BME280;14721;42.668;23.386;2023-03-14T07:43:32;95274.78;;;12.82;35.02
27210;BME280;14721;42.668;23.386;2023-03-14T07:45:57;95269.56;;;12.80;35.37
27210;BME280;14721;42.668;23.386;2023-03-14T07:48:23;95265.41;;;12.76;35.77
27210;BME280;14721;42.668;23.386;2023-03-14T07:50:50;95266.53;;;12.74;35.37
27210;BME280;14721;42.668;23.386;2023-03-14T07:53:18;95257.22;;;12.78;35.43
27210;BME280;14721;42.668;23.386;2023-03-14T07:55:44;95268.47;;;13.03;35.11
27210;BME280;14721;42.668;23.386;2023-03-14T07:58:09;95264.72;;;12.95;34.76
27210;BME280;14721;42.668;23.386;2023-03-14T08:00:35;95263.25;;;12.91;34.62
27210;BME280;14721;42.668;23.386;2023-03-14T08:03:00;95262.81;;;12.54;35.12
27210;BME280;14721;42.668;23.386;2023-03-14T08:05:26;95264.56;;;13.28;34.99
27210;BME280;14721;42.668;23.386;2023-03-14T08:07:51;95264.88;;;13.55;34.31
27210;BME280;14721;42.668;23.386;2023-03-14T08:10:17;95264.63;;;13.58;33.53
27210;BME280;14721;42.668;23.386;2023-03-14T08:12:50;95253.69;;;13.50;33.58
27210;BME280;14721;42.668;23.386;2023-03-14T08:15:16;95261.16;;;13.77;33.03
27210;BME280;14721;42.668;23.386;2023-03-14T08:17:41;95247.34;;;14.21;32.20
27210;BME280;14721;42.668;23.386;2023-03-14T08:20:07;95257.56;;;14.27;32.66
27210;BME280;14721;42.668;23.386;2023-03-14T08:22:36;95259.41;;;13.66;33.17
27210;BME280;14721;42.668;23.386;2023-03-14T08:25:02;95240.19;;;14.01;33.70
27210;BME280;14721;42.668;23.386;2023-03-14T08:27:28;95250.84;;;14.51;32.65
27210;BME280;14721;42.668;23.386;2023-03-14T08:29:53;95255.66;;;14.57;32.45
27210;BME280;14721;42.668;23.386;2023-03-14T08:32:19;95250.28;;;14.76;32.46
27210;BME280;14721;42.668;23.386;2023-03-14T08:34:45;95242.03;;;14.40;32.85
27210;BME280;14721;42.668;23.386;2023-03-14T08:37:11;95239.69;;;14.16;33.78
27210;BME280;14721;42.668;23.386;2023-03-14T08:39:37;95238.03;;;13.55;34.13
27210;BME280;14721;42.668;23.386;2023-03-14T08:42:03;95247.22;;;13.32;33.86
27210;BME280;14721;42.668;23.386;2023-03-14T08:44:29;95238.63;;;13.38;34.34
27210;BME280;14721;42.668;23.386;2023-03-14T08:46:55;95228.38;;;13.02;34.20
27210;BME280;14721;42.668;23.386;2023-03-14T08:49:20;95222.38;;;12.78;34.44
27210;BME280;14721;42.668;23.386;2023-03-14T08:51:45;95225.16;;;12.56;35.03
27210;BME280;14721;42.668;23.386;2023-03-14T08:54:11;95218.31;;;12.63;34.45
27210;BME280;14721;42.668;23.386;2023-03-14T08:56:37;95223.09;;;12.17;34.89
27210;BME280;14721;42.668;23.386;2023-03-14T08:59:06;95213.31;;;11.73;35.83
27210;BME280;14721;42.668;23.386;2023-03-14T09:01:32;95203.81;;;11.36;36.18
27210;BME280;14721;42.668;23.386;2023-03-14T09:03:57;95205.63;;;11.13;35.88
27210;BME280;14721;42.668;23.386;2023-03-14T09:06:23;95212.41;;;10.95;34.88
27210;BME280;14721;42.668;23.386;2023-03-14T09:08:49;95199.44;;;10.67;35.28
27210;BME280;14721;42.668;23.386;2023-03-14T09:11:14;95195.44;;;10.62;36.16
27210;BME280;14721;42.668;23.386;2023-03-14T09:13:41;95200.94;;;10.71;35.99
27210;BME280;14721;42.668;23.386;2023-03-14T09:16:07;95188.63;;;10.58;35.51
27210;BME280;14721;42.668;23.386;2023-03-14T09:18:33;95188.50;;;10.59;35.54
27210;BME280;14721;42.668;23.386;2023-03-14T09:20:59;95173.94;;;10.63;35.06
27210;BME280;14721;42.668;23.386;2023-03-14T09:23:24;95169.88;;;10.47;34.97
27210;BME280;14721;42.668;23.386;2023-03-14T09:25:57;95163.53;;;10.37;35.58
27210;BME280;14721;42.668;23.386;2023-03-14T09:28:24;95163.44;;;10.49;36.64
27210;BME280;14721;42.668;23.386;2023-03-14T09:30:50;95157.44;;;10.69;36.81
27210;BME280;14721;42.668;23.386;2023-03-14T09:33:16;95158.66;;;10.65;37.19
27210;BME280;14721;42.668;23.386;2023-03-14T09:35:42;95146.59;;;10.49;37.96
27210;BME280;14721;42.668;23.386;2023-03-14T09:38:07;95142.97;;;10.61;38.23
27210;BME280;14721;42.668;23.386;2023-03-14T09:40:37;95139.34;;;10.84;38.25
27210;BME280;14721;42.668;23.386;2023-03-14T09:43:03;95133.06;;;11.07;38.20
27210;BME280;14721;42.668;23.386;2023-03-14T09:45:37;95124.44;;;11.14;37.93
27210;BME280;14721;42.668;23.386;2023-03-14T09:48:05;95113.59;;;11.05;38.11
27210;BME280;14721;42.668;23.386;2023-03-14T09:50:43;95110.81;;;11.28;39.39
27210;BME280;14721;42.668;23.386;2023-03-14T09:53:15;95092.78;;;11.53;38.67
27210;BME280;14721;42.668;23.386;2023-03-14T09:55:42;95098.72;;;11.67;38.54
27210;BME280;14721;42.668;23.386;2023-03-14T09:58:13;95099.97;;;11.41;38.77
27210;BME280;14721;42.668;23.386;2023-03-14T10:00:39;95093.16;;;11.48;38.64
27210;BME280;14721;42.668;23.386;2023-03-14T10:03:33;95085.28;;;11.89;38.38
27210;BME280;14721;42.668;23.386;2023-03-14T10:05:59;95079.97;;;12.10;39.00
27210;BME280;14721;42.668;23.386;2023-03-14T10:08:25;95067.66;;;11.87;38.72
27210;BME280;14721;42.668;23.386;2023-03-14T10:10:51;95071.09;;;11.78;38.73
27210;BME280;14721;42.668;23.386;2023-03-14T10:13:26;95071.09;;;11.67;39.04
27210;BME280;14721;42.668;23.386;2023-03-14T10:18:22;95053.88;;;11.91;39.22
27210;BME280;14721;42.668;23.386;2023-03-14T10:21:02;95053.91;;;12.12;39.59
27210;BME280;14721;42.668;23.386;2023-03-14T10:23:29;95037.97;;;12.31;39.66
27210;BME280;14721;42.668;23.386;2023-03-14T10:28:39;95024.81;;;12.48;37.97
27210;BME280;14721;42.668;23.386;2023-03-14T10:31:06;95015.78;;;12.49;37.92
27210;BME280;14721;42.668;23.386;2023-03-14T10:33:34;95017.00;;;12.66;37.69
27210;BME280;14721;42.668;23.386;2023-03-14T10:36:06;95001.78;;;12.96;38.00
27210;BME280;14721;42.668;23.386;2023-03-14T10:38:41;94998.78;;;12.90;37.12
27210;BME280;14721;42.668;23.386;2023-03-14T10:41:25;94994.81;;;12.84;37.37
27210;BME280;14721;42.668;23.386;2023-03-14T10:43:54;94979.28;;;12.88;36.88
27210;BME280;14721;42.668;23.386;2023-03-14T10:46:23;94977.97;;;13.03;37.03
27210;BME280;14721;42.668;23.386;2023-03-14T10:48:51;94972.75;;;13.11;36.92
27210;BME280;14721;42.668;23.386;2023-03-14T10:51:28;94963.00;;;13.00;37.05
27210;BME280;14721;42.668;23.386;2023-03-14T10:54:32;94946.97;;;13.29;36.39
27210;BME280;14721;42.668;23.386;2023-03-14T10:57:00;94942.75;;;13.46;37.37
27210;BME280;14721;42.668;23.386;2023-03-14T10:59:29;94934.28;;;13.60;35.82
27210;BME280;14721;42.668;23.386;2023-03-14T11:07:42;94912.19;;;14.04;36.02
27210;BME280;14721;42.668;23.386;2023-03-14T11:10:29;94907.38;;;13.98;35.15
27210;BME280;14721;42.668;23.386;2023-03-14T11:13:17;94898.75;;;14.13;35.09
27210;BME280;14721;42.668;23.386;2023-03-14T11:16:09;94896.03;;;14.23;34.82
27210;BME280;14721;42.668;23.386;2023-03-14T11:18:51;94888.78;;;14.42;35.01
27210;BME280;14721;42.668;23.386;2023-03-14T11:21:46;94879.56;;;14.54;34.83
27210;BME280;14721;42.668;23.386;2023-03-14T11:29:55;94849.13;;;14.81;34.70
27210;BME280;14721;42.668;23.386;2023-03-14T11:32:43;94845.63;;;14.98;34.57
27210;BME280;14721;42.668;23.386;2023-03-14T11:40:40;94825.19;;;15.05;33.98
27210;BME280;14721;42.668;23.386;2023-03-14T11:43:20;94817.66;;;15.08;34.18
27210;BME280;14721;42.668;23.386;2023-03-14T11:45:56;94820.66;;;15.05;33.34
27210;BME280;14721;42.668;23.386;2023-03-14T11:51:05;94798.50;;;15.12;32.84
27210;BME280;14721;42.668;23.386;2023-03-14T11:56:54;94787.53;;;15.40;32.22
27210;BME280;14721;42.668;23.386;2023-03-14T12:05:34;94770.97;;;15.53;31.33
27210;BME280;14721;42.668;23.386;2023-03-14T12:13:16;94759.16;;;15.71;30.95
27210;BME280;14721;42.668;23.386;2023-03-14T12:15:54;94754.28;;;15.75;31.31
27210;BME280;14721;42.668;23.386;2023-03-14T12:20:57;94737.75;;;15.44;31.39
27210;BME280;14721;42.668;23.386;2023-03-14T12:23:25;94723.81;;;15.49;30.98
27210;BME280;14721;42.668;23.386;2023-03-14T12:29:09;94729.22;;;15.31;31.12
27210;BME280;14721;42.668;23.386;2023-03-14T12:37:02;94720.25;;;15.99;30.56
27210;BME280;14721;42.668;23.386;2023-03-14T12:44:45;94703.66;;;16.53;30.13
27210;BME280;14721;42.668;23.386;2023-03-14T12:49:39;94681.44;;;16.67;29.03
27210;BME280;14721;42.668;23.386;2023-03-14T12:52:22;94691.22;;;16.68;28.88
27210;BME280;14721;42.668;23.386;2023-03-14T12:57:45;94682.22;;;16.44;29.27
27210;BME280;14721;42.668;23.386;2023-03-14T13:00:18;94671.81;;;16.15;29.63
27210;BME280;14721;42.668;23.386;2023-03-14T13:02:46;94671.16;;;16.13;29.36
27210;BME280;14721;42.668;23.386;2023-03-14T13:05:19;94666.31;;;16.25;29.63
27210;BME280;14721;42.668;23.386;2023-03-14T13:10:27;94651.91;;;16.08;29.06
27210;BME280;14721;42.668;23.386;2023-03-14T13:16:00;94648.56;;;16.14;28.71
27210;BME280;14721;42.668;23.386;2023-03-14T13:18:46;94642.72;;;16.27;28.67
27210;BME280;14721;42.668;23.386;2023-03-14T13:21:24;94641.88;;;16.26;28.53
27210;BME280;14721;42.668;23.386;2023-03-14T13:24:23;94639.78;;;16.04;nan
27210;BME280;14721;42.668;23.386;2023-03-14T13:26:49;94630.75;;;16.29;28.68
27210;BME280;14721;42.668;23.386;2023-03-14T13:31:56;94606.38;;;16.39;28.66
27210;BME280;14721;42.668;23.386;2023-03-14T13:34:28;94599.31;;;16.46;28.38
27210;BME280;14721;42.668;23.386;2023-03-14T13:36:55;94606.44;;;16.63;28.66
27210;BME280;14721;42.668;23.386;2023-03-14T13:39:23;94599.66;;;16.59;28.36
27210;BME280;14721;42.668;23.386;2023-03-14T13:42:00;94581.56;;;16.35;28.48
27210;BME280;14721;42.668;23.386;2023-03-14T13:44:34;94576.69;;;16.31;28.91
27210;BME280;14721;42.668;23.386;2023-03-14T13:47:01;94576.53;;;16.40;28.51
27210;BME280;14721;42.668;23.386;2023-03-14T13:49:29;94577.34;;;16.41;28.55
27210;BME280;14721;42.668;23.386;2023-03-14T13:51:58;94572.81;;;16.41;28.60
27210;BME280;14721;42.668;23.386;2023-03-14T13:54:25;94565.94;;;16.47;28.39
27210;BME280;14721;42.668;23.386;2023-03-14T13:57:06;94564.72;;;16.41;28.31
27210;BME280;14721;42.668;23.386;2023-03-14T13:59:33;94560.88;;;16.44;28.21
27210;BME280;14721;42.668;23.386;2023-03-14T14:02:03;94553.84;;;16.51;28.16
27210;BME280;14721;42.668;23.386;2023-03-14T14:04:32;94544.19;;;16.48;28.23
27210;BME280;14721;42.668;23.386;2023-03-14T14:07:06;94539.34;;;16.60;28.06
27210;BME280;14721;42.668;23.386;2023-03-14T14:09:38;94525.16;;;16.50;28.15
27210;BME280;14721;42.668;23.386;2023-03-14T14:12:13;94527.31;;;16.38;28.08
27210;BME280;14721;42.668;23.386;2023-03-14T14:14:55;94524.84;;;16.45;28.60
27210;BME280;14721;42.668;23.386;2023-03-14T14:17:43;94513.03;;;16.46;28.60
27210;BME280;14721;42.668;23.386;2023-03-14T14:20:35;94518.09;;;16.49;28.49
27210;BME280;14721;42.668;23.386;2023-03-14T14:23:04;94507.94;;;16.43;28.76
27210;BME280;14721;42.668;23.386;2023-03-14T14:25:30;94502.22;;;16.30;28.50